Time;durP1;ratioP1;P1;durP2;ratioP2;P2;SDS_P1;SDS_P2;PMS_P1;PMS_P2;Temp;Humidity;BMP_temperature;BMP_pressure;BME280_temperature;BME280_humidity;BME280_pressure;Samples;Min_cycle;Max_cycle;Signal;HPM_P1;HPM_P2
2023/04/30 00:00:12;;;;;;;9.25;6.80;;;12.70;99.90;;;11.82;100.00;97620.59;4934793;29;20513;-76
2023/04/30 00:02:38;;;;;;;9.85;6.53;;;12.70;99.90;;;11.82;100.00;97625.91;4933604;29;20936;-76
2023/04/30 00:05:05;;;;;;;11.80;8.52;;;12.70;99.90;;;11.81;100.00;97626.97;4933348;29;20917;-76
2023/04/30 00:07:31;;;;;;;9.20;6.30;;;12.70;99.90;;;11.85;100.00;97627.25;4934076;29;20850;-76
2023/04/30 00:09:57;;;;;;;11.35;7.68;;;12.70;99.90;;;11.86;100.00;97627.03;4934643;29;20458;-76
2023/04/30 00:12:23;;;;;;;10.50;7.72;;;12.80;99.90;;;11.87;100.00;97623.31;4935897;29;20423;-76
2023/04/30 00:14:50;;;;;;;9.00;7.07;;;12.70;99.90;;;11.87;100.00;97622.53;4935262;29;20419;-76
2023/04/30 00:17:16;;;;;;;8.75;6.35;;;12.80;99.90;;;11.86;100.00;97621.72;4934415;29;20412;-76
2023/04/30 00:19:42;;;;;;;10.93;7.38;;;12.80;99.90;;;11.84;100.00;97618.50;4934443;29;20474;-76
2023/04/30 00:22:08;;;;;;;10.52;7.13;;;12.70;99.90;;;11.83;100.00;97614.25;4934628;29;20426;-76
2023/04/30 00:24:34;;;;;;;10.85;7.15;;;12.70;99.90;;;11.83;100.00;97608.16;4934425;29;20928;-76
2023/04/30 00:27:00;;;;;;;12.63;8.23;;;12.70;99.90;;;11.82;100.00;97620.59;4934088;29;20507;-76
2023/04/30 00:29:26;;;;;;;10.98;7.78;;;12.70;99.90;;;11.82;100.00;97619.81;4934402;29;20411;-76
2023/04/30 00:31:53;;;;;;;12.43;8.10;;;12.70;99.90;;;11.82;100.00;97625.09;4934313;29;20407;-76
2023/04/30 00:34:19;;;;;;;12.40;7.57;;;12.70;99.90;;;11.82;100.00;97625.09;4933057;29;20466;-76
2023/04/30 00:36:45;;;;;;;12.23;8.13;;;12.70;99.90;;;11.80;100.00;97625.34;4933942;29;20407;-76
2023/04/30 00:39:11;;;;;;;11.80;7.63;;;12.70;99.90;;;11.78;100.00;97626.69;4934162;29;20845;-76
2023/04/30 00:41:38;;;;;;;10.90;7.50;;;12.70;99.90;;;11.77;100.00;97625.06;4934018;29;20415;-76
2023/04/30 00:44:05;;;;;;;12.85;7.90;;;12.60;99.90;;;11.74;100.00;97622.88;4934041;29;20415;-76
2023/04/30 00:46:31;;;;;;;13.25;8.52;;;12.60;99.90;;;11.72;100.00;97633.78;4933687;29;20525;-76
2023/04/30 00:49:01;;;;;;;12.27;8.13;;;12.60;99.90;;;11.71;100.00;97626.84;4934057;29;20414;-76
2023/04/30 00:51:28;;;;;;;11.68;8.18;;;12.60;99.90;;;11.72;100.00;97630.31;4933865;29;20419;-76
2023/04/30 00:53:54;;;;;;;12.55;7.78;;;12.60;99.90;;;11.72;100.00;97630.31;4934072;29;20426;-76
2023/04/30 00:56:20;;;;;;;13.40;9.02;;;12.60;99.90;;;11.70;100.00;97627.91;4933757;29;20534;-76
2023/04/30 00:58:46;;;;;;;11.98;8.23;;;12.60;99.90;;;11.69;100.00;97634.25;4933891;29;20415;-76
2023/04/30 01:01:12;;;;;;;13.38;8.32;;;12.60;99.90;;;11.68;100.00;97637.16;4933720;29;20447;-76
2023/04/30 01:03:39;;;;;;;13.23;9.30;;;12.50;99.90;;;11.65;100.00;97635.81;4933799;29;20413;-76
2023/04/30 01:06:06;;;;;;;10.88;8.02;;;12.60;99.90;;;11.62;100.00;97629.16;4933531;29;20404;-76
2023/04/30 01:08:32;;;;;;;13.70;8.02;;;12.50;99.90;;;11.59;100.00;97629.66;4932333;29;20810;-76
2023/04/30 01:11:16;;;;;;;14.93;8.52;;;12.50;99.90;;;11.58;100.00;97630.69;4933630;29;20412;-76
2023/04/30 01:13:52;;;;;;;14.57;8.82;;;12.50;99.90;;;11.57;100.00;97636.28;4933674;29;20424;-76
2023/04/30 01:16:23;;;;;;;12.73;8.13;;;12.50;99.90;;;11.58;100.00;97622.75;4933657;29;20404;-76
2023/04/30 01:18:56;;;;;;;12.32;7.97;;;12.50;99.90;;;11.58;100.00;97627.25;4933645;29;20803;-76
2023/04/30 01:21:24;;;;;;;14.57;9.23;;;12.50;99.90;;;11.58;100.00;97624.59;4933463;29;20412;-76
2023/04/30 01:24:23;;;;;;;13.93;8.33;;;12.50;99.90;;;11.57;100.00;97621.19;4933592;29;20416;-76
2023/04/30 01:27:05;;;;;;;12.63;8.45;;;12.40;99.90;;;11.58;100.00;97614.78;4933319;29;20423;-76
2023/04/30 01:29:35;;;;;;;14.75;9.10;;;12.50;99.90;;;11.57;100.00;97615.88;4933872;29;20744;-76
2023/04/30 01:32:02;;;;;;;13.27;8.87;;;12.50;99.90;;;11.56;100.00;97614.28;4933472;29;20553;-76
2023/04/30 01:34:28;;;;;;;18.77;8.80;;;12.50;99.90;;;11.56;100.00;97614.28;4933416;29;20502;-76
2023/04/30 01:37:10;;;;;;;11.85;7.97;;;12.50;99.90;;;11.55;100.00;97614.50;4933329;29;20420;-76
2023/04/30 01:39:57;;;;;;;13.80;8.15;;;12.50;99.90;;;11.54;100.00;97612.91;4933343;29;20825;-76
2023/04/30 01:42:35;;;;;;;11.55;7.70;;;12.50;99.90;;;11.53;100.00;97612.09;4933339;29;20424;-76
2023/04/30 01:45:21;;;;;;;11.57;7.97;;;12.40;99.90;;;11.50;100.00;97609.16;4933405;29;20407;-76
2023/04/30 01:47:56;;;;;;;14.77;9.83;;;12.40;99.90;;;11.50;100.00;97612.59;4933121;29;20432;-76
2023/04/30 01:50:32;;;;;;;13.02;8.82;;;12.40;99.90;;;11.48;100.00;97616.56;4933224;29;20407;-76
2023/04/30 01:53:00;;;;;;;13.50;9.35;;;12.40;99.90;;;11.46;100.00;97613.34;4933331;29;20422;-76
2023/04/30 01:55:35;;;;;;;14.85;9.38;;;12.40;99.90;;;11.45;100.00;97617.06;4933055;29;20575;-76
2023/04/30 01:58:06;;;;;;;14.82;10.30;;;12.40;99.90;;;11.44;100.00;97618.91;4933243;29;20411;-76
2023/04/30 02:00:33;;;;;;;17.92;11.88;;;12.30;99.90;;;11.42;100.00;97626.34;4933214;29;20789;-76
2023/04/30 02:02:59;;;;;;;17.67;11.40;;;12.30;99.90;;;11.42;100.00;97617.56;4933158;29;21028;-76
2023/04/30 02:05:25;;;;;;;19.63;11.93;;;12.30;99.90;;;11.39;100.00;97616.22;4931676;29;20464;-76
2023/04/30 02:07:52;;;;;;;20.75;13.02;;;12.30;99.90;;;11.38;100.00;97616.47;4933058;29;20423;-76
2023/04/30 02:10:21;;;;;;;18.63;11.88;;;12.30;99.90;;;11.37;100.00;97614.84;4931991;29;20797;-76
2023/04/30 02:12:47;;;;;;;24.33;14.50;;;12.30;99.90;;;11.37;100.00;97615.66;4932992;29;20422;-76
2023/04/30 02:15:14;;;;;;;21.98;13.00;;;12.30;99.90;;;11.35;100.00;97612.44;4932992;29;20407;-76
2023/04/30 02:17:41;;;;;;;25.33;15.37;;;12.20;99.90;;;11.32;100.00;97607.66;4933116;29;20579;-76
2023/04/30 02:20:09;;;;;;;24.58;14.90;;;12.20;99.90;;;11.31;100.00;97610.56;4931805;29;20424;-76
2023/04/30 02:22:35;;;;;;;24.48;14.05;;;12.20;99.90;;;11.28;100.00;97613.72;4933162;29;20407;-76
2023/04/30 02:25:02;;;;;;;19.75;12.15;;;12.20;99.90;;;11.27;100.00;97614.78;4933078;29;20483;-76
2023/04/30 02:27:31;;;;;;;23.60;14.20;;;12.20;99.90;;;11.25;100.00;97609.72;4931496;29;20427;-76
2023/04/30 02:29:57;;;;;;;20.95;12.45;;;12.20;99.90;;;11.24;100.00;97616.06;4931974;29;20419;-76
2023/04/30 02:32:23;;;;;;;23.37;13.63;;;12.20;99.90;;;11.22;100.00;97607.56;4936747;29;20447;-76
2023/04/30 02:34:50;;;;;;;21.80;13.05;;;12.10;99.90;;;11.19;100.00;97614.16;4935117;29;20415;-76
2023/04/30 02:37:16;;;;;;;26.00;13.98;;;12.10;99.90;;;11.16;100.00;97609.34;4936499;29;20412;-76
2023/04/30 02:39:42;;;;;;;23.95;13.60;;;12.10;99.90;;;11.13;100.00;97612.50;4936617;29;20412;-77
2023/04/30 02:42:08;;;;;;;27.02;14.80;;;12.10;99.90;;;11.12;100.00;97610.13;4936218;29;20419;-76
2023/04/30 02:44:34;;;;;;;25.05;14.30;;;12.00;99.90;;;11.07;100.00;97610.84;4936274;29;20439;-76
2023/04/30 02:47:01;;;;;;;23.85;14.48;;;12.00;99.90;;;11.06;100.00;97611.88;4935954;29;20430;-76
2023/04/30 02:49:27;;;;;;;23.23;13.47;;;12.00;99.90;;;11.05;100.00;97609.50;4936211;29;20503;-76
2023/04/30 02:51:54;;;;;;;24.70;14.82;;;12.00;99.90;;;11.04;100.00;97610.56;4936190;29;20412;-76
2023/04/30 02:54:20;;;;;;;23.05;14.30;;;12.00;99.90;;;11.04;100.00;97605.25;4936146;29;20444;-76
2023/04/30 02:56:46;;;;;;;26.38;15.15;;;12.00;99.90;;;11.02;100.00;97613.44;4935984;29;20419;-76
2023/04/30 02:59:12;;;;;;;24.05;14.38;;;12.00;99.90;;;11.00;100.00;97609.44;4936249;29;20447;-76
2023/04/30 03:01:38;;;;;;;24.20;14.65;;;11.90;99.90;;;10.98;100.00;97614.16;4936118;29;20415;-77
2023/04/30 03:04:04;;;;;;;24.55;14.30;;;11.90;99.90;;;10.96;100.00;97616.28;4936205;29;20781;-76
2023/04/30 03:06:31;;;;;;;26.25;15.68;;;11.90;99.90;;;10.93;100.00;97617.56;4935624;29;20431;-76
2023/04/30 03:08:59;;;;;;;24.50;15.02;;;11.90;99.90;;;10.91;100.00;97603.75;4935919;29;20915;-76
2023/04/30 03:11:25;;;;;;;26.98;15.88;;;11.90;99.90;;;10.91;100.00;97613.56;4935694;29;20419;-76
2023/04/30 03:13:51;;;;;;;24.35;15.18;;;11.80;99.90;;;10.91;100.00;97610.91;4935670;29;20796;-76
2023/04/30 03:16:18;;;;;;;28.10;16.63;;;11.80;99.90;;;10.90;100.00;97609.34;4935538;29;20419;-76
2023/04/30 03:18:44;;;;;;;30.48;17.25;;;11.80;99.90;;;10.87;100.00;97607.97;4935812;29;20407;-76
2023/04/30 03:21:10;;;;;;;27.77;16.57;;;11.80;99.90;;;10.87;100.00;97613.25;4935568;29;20519;-76
2023/04/30 03:23:36;;;;;;;29.25;16.95;;;11.80;99.90;;;10.86;100.00;97612.47;4935586;29;20419;-77
2023/04/30 03:26:03;;;;;;;33.20;18.27;;;11.80;99.90;;;10.85;100.00;97608.22;4935287;29;20418;-76
2023/04/30 03:28:29;;;;;;;29.97;17.83;;;11.80;99.90;;;10.83;100.00;97605.00;4935523;29;20825;-76
2023/04/30 03:30:55;;;;;;;30.05;17.30;;;11.80;99.90;;;10.83;100.00;97612.13;4935463;29;20407;-76
2023/04/30 03:33:21;;;;;;;27.92;16.17;;;11.80;99.90;;;10.82;100.00;97600.78;4935437;29;20478;-76
2023/04/30 03:35:48;;;;;;;28.48;16.98;;;11.80;99.90;;;10.82;100.00;97602.63;4935212;29;20568;-76
2023/04/30 03:38:14;;;;;;;32.00;19.03;;;11.80;99.90;;;10.80;100.00;97599.41;4935438;29;20575;-76
2023/04/30 03:40:40;;;;;;;31.48;17.48;;;11.70;99.90;;;10.79;100.00;97605.75;4935085;29;20414;-76
2023/04/30 03:43:08;;;;;;;27.95;16.30;;;11.70;99.90;;;10.79;100.00;97605.75;4934953;29;20408;-76
2023/04/30 03:45:33;;;;;;;29.48;17.45;;;11.70;99.90;;;10.77;100.00;97606.00;4934853;29;20443;-76
2023/04/30 03:47:59;;;;;;;31.02;18.02;;;11.70;99.90;;;10.77;100.00;97603.34;4935076;29;20462;-76
2023/04/30 03:50:25;;;;;;;32.38;18.27;;;11.70;99.90;;;10.77;100.00;97608.63;4934984;29;20422;-76
2023/04/30 03:52:51;;;;;;;28.60;16.85;;;11.70;99.90;;;10.76;100.00;97603.59;4934948;29;20454;-76
2023/04/30 03:55:17;;;;;;;26.63;15.77;;;11.70;99.90;;;10.75;100.00;97602.78;4934767;29;20469;-76
2023/04/30 03:57:43;;;;;;;35.75;20.50;;;11.70;99.90;;;10.74;100.00;97611.00;4934718;29;20766;-76
2023/04/30 04:00:12;;;;;;;28.83;16.35;;;11.70;99.90;;;10.72;100.00;97613.88;4934834;29;20423;-76
2023/04/30 04:02:38;;;;;;;27.38;17.02;;;11.70;99.90;;;10.71;100.00;97608.81;4934812;29;20466;-76
2023/04/30 04:05:05;;;;;;;28.40;17.80;;;11.60;99.90;;;10.68;100.00;97604.00;4934931;29;20455;-76
2023/04/30 04:07:31;;;;;;;29.45;17.52;;;11.60;99.90;;;10.62;100.00;97610.28;4933184;29;20434;-76
2023/04/30 04:09:57;;;;;;;26.92;17.08;;;11.50;99.90;;;10.57;100.00;97615.53;4934692;29;20830;-76
2023/04/30 04:12:23;;;;;;;24.27;15.48;;;11.50;99.90;;;10.49;100.00;97611.47;4934779;29;20423;-75
2023/04/30 04:14:49;;;;;;;25.88;15.65;;;11.40;99.90;;;10.41;100.00;97614.53;4934694;29;20411;-76
2023/04/30 04:17:17;;;;;;;24.33;15.80;;;11.30;99.90;;;10.35;100.00;97616.31;4934496;29;20403;-76
2023/04/30 04:19:43;;;;;;;25.25;16.23;;;11.20;99.90;;;10.28;100.00;97620.97;4934477;29;20418;-76
2023/04/30 04:22:08;;;;;;;23.20;14.85;;;11.20;99.90;;;10.27;100.00;97622.00;4934785;29;20415;-76
2023/04/30 04:24:35;;;;;;;21.67;15.02;;;11.20;99.90;;;10.29;100.00;97625.22;4934375;29;20510;-76
2023/04/30 04:27:04;;;;;;;22.67;14.63;;;11.20;99.90;;;10.30;100.00;97626.03;4934146;29;20439;-76
2023/04/30 04:29:31;;;;;;;25.48;15.98;;;11.20;99.90;;;10.32;100.00;97623.91;4934378;29;20495;-76
2023/04/30 04:31:59;;;;;;;21.73;14.73;;;11.20;99.90;;;10.33;100.00;97628.16;4934207;29;20412;-76
2023/04/30 04:34:26;;;;;;;23.73;16.10;;;11.30;99.90;;;10.32;100.00;97626.56;4934289;29;20500;-76
2023/04/30 04:36:52;;;;;;;21.85;14.57;;;11.20;99.90;;;10.29;100.00;97624.41;4934219;29;20415;-76
2023/04/30 04:39:18;;;;;;;20.70;13.93;;;11.20;99.90;;;10.25;100.00;97626.72;4934318;29;20404;-76
2023/04/30 04:41:44;;;;;;;20.85;13.50;;;11.20;99.90;;;10.26;100.00;97633.63;4934242;29;20420;-76
2023/04/30 04:44:10;;;;;;;23.05;15.38;;;11.20;99.90;;;10.26;100.00;97636.28;4934303;29;20407;-76
2023/04/30 04:46:41;;;;;;;22.43;15.30;;;11.20;99.90;;;10.25;100.00;97636.50;4934058;29;20434;-76
2023/04/30 04:49:07;;;;;;;18.53;12.93;;;11.20;99.90;;;10.25;100.00;97639.16;4934350;29;20948;-76
2023/04/30 04:51:34;;;;;;;21.05;13.75;;;11.10;99.90;;;10.26;100.00;97630.19;4933910;29;20420;-76
2023/04/30 04:54:00;;;;;;;22.48;15.25;;;11.20;99.90;;;10.28;100.00;97634.19;4933491;29;20419;-76
2023/04/30 04:56:26;;;;;;;20.33;13.70;;;11.20;99.90;;;10.31;100.00;97628.41;4933800;29;20462;-76
2023/04/30 04:58:52;;;;;;;26.05;14.32;;;11.20;99.90;;;10.32;100.00;97629.22;4933952;29;20474;-76
2023/04/30 05:01:18;;;;;;;25.85;14.63;;;11.30;99.90;;;10.33;100.00;97636.91;4933993;29;20426;-76
2023/04/30 05:03:44;;;;;;;23.00;15.30;;;11.30;99.90;;;10.35;100.00;97634.03;4933850;29;20407;-76
2023/04/30 05:06:10;;;;;;;24.65;15.93;;;11.30;99.90;;;10.36;100.00;97633.78;4933614;29;20494;-76
2023/04/30 05:08:37;;;;;;;21.40;13.43;;;11.30;99.90;;;10.40;100.00;97632.25;4933657;29;20945;-76
2023/04/30 05:11:03;;;;;;;23.75;15.63;;;11.30;99.90;;;10.43;100.00;97629.13;4933672;29;20802;-76
2023/04/30 05:13:29;;;;;;;24.23;15.75;;;11.40;99.90;;;10.47;100.00;97635.53;4933900;29;20423;-76
2023/04/30 05:15:55;;;;;;;29.27;17.52;;;11.40;99.90;;;10.48;100.00;97634.47;4933378;29;20447;-76
2023/04/30 05:18:21;;;;;;;30.52;18.17;;;11.40;99.90;;;10.47;100.00;97626.78;4932255;29;20415;-76
2023/04/30 05:20:47;;;;;;;26.27;17.15;;;11.40;99.90;;;10.43;100.00;97629.13;4933598;29;20926;-76
2023/04/30 05:23:13;;;;;;;25.88;16.77;;;11.30;99.90;;;10.41;100.00;97631.22;4933628;29;20431;-76
2023/04/30 05:25:40;;;;;;;28.83;18.77;;;11.30;99.90;;;10.40;100.00;97632.25;4933391;29;20902;-76
2023/04/30 05:28:06;;;;;;;25.27;15.93;;;11.30;99.90;;;10.42;100.00;97632.00;4933567;29;20434;-76
2023/04/30 05:30:32;;;;;;;24.85;15.52;;;11.30;99.90;;;10.46;100.00;97638.41;4934662;29;20435;-77
2023/04/30 05:32:58;;;;;;;22.88;14.23;;;11.30;99.90;;;10.49;100.00;97637.94;4933713;29;20411;-77
2023/04/30 05:35:24;;;;;;;21.40;14.38;;;11.40;99.90;;;10.54;100.00;97631.88;4933402;29;20506;-77
2023/04/30 05:37:50;;;;;;;28.60;17.45;;;11.40;99.90;;;10.58;100.00;97640.97;4933300;29;20416;-77
2023/04/30 05:40:16;;;;;;;25.77;15.50;;;11.50;99.90;;;10.65;100.00;97639.75;4933373;29;20495;-77
2023/04/30 05:42:43;;;;;;;26.67;15.93;;;11.50;99.90;;;10.71;100.00;97635.31;4932618;29;20427;-77
2023/04/30 05:45:11;;;;;;;23.58;14.50;;;11.60;99.90;;;10.81;100.00;97633.59;4931707;29;20413;-77
2023/04/30 05:47:37;;;;;;;26.00;16.85;;;11.70;99.90;;;10.93;100.00;97627.34;4931550;29;21032;-78
2023/04/30 05:50:04;;;;;;;25.58;15.18;;;11.80;99.90;;;11.05;100.00;97638.66;4927684;28;20414;-75
2023/04/30 05:52:31;;;;;;;24.80;16.23;;;11.90;99.90;;;11.14;100.00;97639.78;4929899;29;20490;-76
2023/04/30 05:54:57;;;;;;;26.70;17.73;;;12.00;99.90;;;11.23;100.00;97639.09;4932766;28;20424;-77
2023/04/30 05:57:22;;;;;;;22.35;15.30;;;12.10;99.90;;;11.36;100.00;97640.56;4934297;29;20854;-77
2023/04/30 05:59:50;;;;;;;22.77;15.77;;;12.20;99.90;;;11.47;100.00;97638.81;4923985;29;20459;-77
2023/04/30 06:02:16;;;;;;;21.73;14.27;;;12.30;99.90;;;11.53;100.00;97638.63;4923760;29;20510;-77
2023/04/30 06:04:42;;;;;;;25.23;16.23;;;12.40;99.90;;;11.57;100.00;97638.94;4929401;29;20494;-77
2023/04/30 06:07:08;;;;;;;22.63;14.80;;;12.40;99.90;;;11.62;100.00;97644.28;4934925;28;20457;-76
2023/04/30 06:09:34;;;;;;;20.13;13.87;;;12.50;99.90;;;11.65;100.00;97644.56;4935642;29;20857;-75
2023/04/30 06:12:01;;;;;;;27.42;17.38;;;12.50;99.90;;;11.71;100.00;97636.66;4936837;29;20439;-75
2023/04/30 06:14:27;;;;;;;27.45;16.85;;;12.50;99.90;;;11.75;100.00;97635.94;4936369;29;20442;-76
2023/04/30 06:16:54;;;;;;;21.40;15.25;;;12.60;99.90;;;11.83;100.00;97640.78;4935376;29;20447;-76
2023/04/30 06:19:20;;;;;;;25.40;16.77;;;12.70;99.90;;;11.92;100.00;97646.41;4928353;29;20419;-76
2023/04/30 06:21:46;;;;;;;22.35;14.90;;;12.70;99.90;;;11.98;100.00;97646.22;4934510;29;20422;-75
2023/04/30 06:24:12;;;;;;;19.30;13.32;;;12.80;99.90;;;12.05;100.00;97643.34;4924912;29;20431;-76
2023/04/30 06:26:38;;;;;;;24.85;16.20;;;12.80;99.90;;;12.10;100.00;97654.00;4932592;29;20415;-75
2023/04/30 06:29:04;;;;;;;23.37;15.90;;;12.90;99.90;;;12.11;100.00;97652.13;4926416;29;20850;-76
2023/04/30 06:31:29;;;;;;;21.42;14.73;;;12.90;99.90;;;12.16;100.00;97650.34;4933554;29;20527;-76
2023/04/30 06:33:57;;;;;;;23.88;16.35;;;12.90;99.90;;;12.18;100.00;97650.84;4928721;29;20543;-76
2023/04/30 06:36:23;;;;;;;21.58;15.25;;;13.00;99.90;;;12.24;100.00;97649.06;4932271;29;20415;-76
2023/04/30 06:38:49;;;;;;;26.67;16.95;;;13.00;99.90;;;12.19;100.00;97649.00;4933105;29;20406;-76
2023/04/30 06:41:15;;;;;;;25.27;16.58;;;13.00;99.90;;;12.19;100.00;97652.47;4967229;23;20409;-76
2023/04/30 06:43:42;;;;;;;21.38;15.18;;;13.00;99.90;;;12.35;100.00;97646.22;4924279;29;20472;-77
2023/04/30 06:46:08;;;;;;;22.38;15.30;;;13.10;99.90;;;12.45;100.00;97650.78;4934352;29;20463;-77
2023/04/30 06:48:34;;;;;;;19.27;13.65;;;13.20;99.90;;;12.54;100.00;97651.91;4936242;29;21473;-76
2023/04/30 06:51:01;;;;;;;18.85;14.23;;;13.30;99.90;;;12.58;100.00;97654.84;4923127;29;20437;-77
2023/04/30 06:53:27;;;;;;;19.92;14.73;;;13.40;99.90;;;12.63;100.00;97657.53;4913120;29;20771;-78
2023/04/30 06:55:54;;;;;;;20.98;14.55;;;13.40;99.90;;;12.70;100.00;97663.44;4913386;29;20413;-77
2023/04/30 06:58:20;;;;;;;18.30;13.57;;;13.50;99.90;;;12.73;100.00;97661.03;4911867;29;20444;-77
2023/04/30 07:00:46;;;;;;;18.00;13.10;;;13.50;99.90;;;12.84;100.00;97656.59;4908987;29;20416;-78
2023/04/30 07:03:12;;;;;;;18.20;13.82;;;13.60;99.90;;;12.92;100.00;97655.31;4908456;29;20420;-77
2023/04/30 07:05:38;;;;;;;20.73;14.80;;;13.70;99.90;;;12.85;100.00;97655.53;4915961;29;20853;-78
2023/04/30 07:08:06;;;;;;;17.75;14.25;;;13.60;99.90;;;12.90;100.00;97654.75;4918456;29;20429;-78
2023/04/30 07:10:32;;;;;;;19.90;14.27;;;13.70;99.90;;;12.88;100.00;97648.88;4917491;29;20485;-77
2023/04/30 07:12:58;;;;;;;18.55;13.52;;;13.70;99.90;;;12.96;100.00;97641.22;4916500;29;20441;-77
2023/04/30 07:15:24;;;;;;;18.50;13.65;;;13.70;99.90;;;12.99;100.00;97647.88;4915953;29;20963;-77
2023/04/30 07:17:50;;;;;;;15.93;12.37;;;13.70;99.90;;;13.02;100.00;97642.84;4916671;29;20941;-78
2023/04/30 07:20:16;;;;;;;17.30;12.65;;;13.80;99.90;;;13.02;100.00;97647.34;4919110;29;20783;-77
2023/04/30 07:22:44;;;;;;;16.55;12.65;;;13.80;99.90;;;13.04;100.00;97648.69;4919463;29;20420;-77
2023/04/30 07:25:12;;;;;;;17.13;12.98;;;13.80;99.90;;;13.05;100.00;97650.31;4911271;29;20516;-78
2023/04/30 07:27:39;;;;;;;17.00;13.02;;;13.80;99.90;;;13.05;100.00;97647.66;4919815;29;20425;-77
2023/04/30 07:30:09;;;;;;;18.95;13.85;;;13.80;99.90;;;12.99;100.00;97642.56;4916528;29;20417;-78
2023/04/30 07:32:36;;;;;;;19.45;13.60;;;13.80;99.90;;;12.97;100.00;97640.16;4916167;29;20412;-77
2023/04/30 07:35:02;;;;;;;17.00;12.63;;;13.80;99.90;;;12.95;100.00;97646.78;4916640;29;20409;-76
2023/04/30 07:37:28;;;;;;;16.23;12.50;;;13.70;99.90;;;13.00;100.00;97644.19;4916056;29;20898;-77
2023/04/30 07:39:54;;;;;;;15.17;11.80;;;13.80;99.90;;;12.98;100.00;97646.28;4915438;29;20460;-76
2023/04/30 07:42:22;;;;;;;17.75;12.20;;;13.80;99.90;;;12.96;100.00;97640.41;4916132;29;20421;-77
2023/04/30 07:44:48;;;;;;;17.27;13.32;;;13.70;99.90;;;12.92;100.00;97637.50;4916339;29;20420;-76
2023/04/30 07:47:14;;;;;;;17.55;12.73;;;13.70;99.90;;;12.95;100.00;97638.81;4916142;29;20714;-76
2023/04/30 07:49:40;;;;;;;16.42;12.10;;;13.70;99.90;;;12.94;100.00;97630.06;4914481;29;20484;-77
2023/04/30 07:52:09;;;;;;;13.73;11.50;;;13.70;99.90;;;13.02;100.00;97629.56;4916334;29;20900;-75
2023/04/30 07:54:37;;;;;;;14.02;11.25;;;13.80;99.90;;;13.00;100.00;97634.34;4915974;29;20417;-76
2023/04/30 07:57:03;;;;;;;16.85;11.40;;;13.80;99.90;;;13.06;100.00;97629.84;4915887;29;20440;-76
2023/04/30 07:59:30;;;;;;;15.95;11.80;;;13.80;99.90;;;13.09;100.00;97632.75;4931021;29;20908;-75
2023/04/30 08:01:56;;;;;;;15.07;11.77;;;13.80;99.90;;;13.18;100.00;97633.09;4912217;29;20428;-77
2023/04/30 08:04:22;;;;;;;16.85;11.27;;;13.90;99.90;;;13.20;100.00;97625.66;4906984;29;20896;-77
2023/04/30 08:06:48;;;;;;;17.73;12.52;;;13.90;99.90;;;13.24;100.00;97628.59;4913198;29;20888;-76
2023/04/30 08:09:14;;;;;;;15.70;10.73;;;14.00;99.90;;;13.27;100.00;97620.91;4911898;29;20431;-76
2023/04/30 08:11:40;;;;;;;12.40;10.02;;;14.00;99.90;;;13.22;100.00;97630.72;4916638;29;20542;-76
2023/04/30 08:14:06;;;;;;;11.93;9.63;;;13.90;99.90;;;13.28;100.00;97624.34;4900371;29;20414;-76
2023/04/30 08:16:34;;;;;;;13.00;9.65;;;14.00;99.90;;;13.31;100.00;97621.94;4921993;29;20474;-77
2023/04/30 08:19:00;;;;;;;12.20;9.45;;;14.00;99.90;;;13.35;100.00;97623.03;4910956;29;20427;-77
2023/04/30 08:21:27;;;;;;;11.50;9.48;;;14.10;99.90;;;13.46;100.00;97627.31;4906184;29;20938;-77
2023/04/30 08:23:53;;;;;;;16.00;10.35;;;14.20;99.90;;;13.52;100.00;97620.16;4909960;29;20811;-77
2023/04/30 08:26:19;;;;;;;9.65;8.65;;;14.20;99.90;;;13.71;100.00;97629.22;4913458;29;20496;-76
2023/04/30 08:28:45;;;;;;;12.50;9.90;;;14.40;99.90;;;13.79;100.00;97627.88;4914812;29;20429;-78
2023/04/30 08:31:11;;;;;;;11.15;8.73;;;14.50;99.90;;;13.83;100.00;97628.97;4913776;29;20591;-76
2023/04/30 08:33:40;;;;;;;11.00;8.07;;;14.50;99.90;;;13.93;100.00;97628.94;4926257;29;20489;-76
2023/04/30 08:36:06;;;;;;;13.13;7.50;;;14.60;99.90;;;14.00;100.00;97628.69;4913973;29;20537;-77
2023/04/30 08:38:32;;;;;;;9.23;6.68;;;14.70;99.90;;;14.22;100.00;97627.34;4910065;29;20469;-76
2023/04/30 08:41:10;;;;;;;9.18;7.75;;;14.90;99.90;;;14.47;100.00;97621.22;4914225;29;20880;-76
2023/04/30 08:43:36;;;;;;;9.23;7.28;;;15.10;99.90;;;14.54;100.00;97624.38;4909572;29;20426;-77
2023/04/30 08:46:04;;;;;;;9.88;6.97;;;15.20;99.90;;;14.61;100.00;97622.25;4908983;29;20431;-77
2023/04/30 08:48:30;;;;;;;9.15;6.95;;;15.30;99.90;;;14.67;100.00;97621.16;4911182;29;20433;-74
2023/04/30 08:51:00;;;;;;;8.13;5.97;;;15.30;99.90;;;14.78;100.00;97611.28;4912439;29;20548;-74
2023/04/30 08:53:26;;;;;;;7.77;5.40;;;15.50;99.90;;;14.83;100.00;97618.44;4911173;29;21099;-74
2023/04/30 08:55:52;;;;;;;7.75;5.40;;;15.50;99.90;;;14.88;100.00;97621.09;4912803;29;20962;-75
2023/04/30 08:58:18;;;;;;;6.25;4.47;;;15.50;99.90;;;14.94;100.00;97623.47;4927976;29;20449;-75
2023/04/30 09:00:44;;;;;;;7.82;5.25;;;15.60;99.90;;;14.86;100.00;97618.69;4914119;29;20481;-74
2023/04/30 09:03:10;;;;;;;6.85;4.82;;;15.60;99.90;;;14.95;100.00;97617.06;4908938;29;20459;-76
2023/04/30 09:05:37;;;;;;;6.53;4.75;;;15.60;99.90;;;15.06;100.00;97623.94;4910304;29;20523;-77
2023/04/30 09:08:07;;;;;;;4.43;3.63;;;15.70;99.90;;;15.25;100.00;97624.13;4912549;29;20429;-77
2023/04/30 09:10:34;;;;;;;6.22;3.65;;;15.80;99.90;;;15.36;100.00;97620.31;4913774;29;20513;-76
2023/04/30 09:13:02;;;;;;;5.88;3.60;;;16.00;99.90;;;15.36;100.00;97617.66;4909085;29;20417;-75
2023/04/30 09:15:29;;;;;;;4.57;3.17;;;16.00;99.90;;;15.51;100.00;97614.09;4911797;29;20453;-76
2023/04/30 09:18:07;;;;;;;4.95;3.65;;;16.10;99.90;;;15.62;100.00;97612.19;4911398;29;20428;-76
2023/04/30 09:20:34;;;;;;;7.13;3.35;;;16.20;99.90;;;15.80;100.00;97616.84;4909493;29;20413;-76
2023/04/30 09:23:07;;;;;;;5.30;3.30;;;16.40;99.90;;;15.95;100.00;97616.72;4911829;29;20417;-76
2023/04/30 09:25:42;;;;;;;4.87;3.70;;;16.50;99.90;;;16.13;100.00;97620.59;4909694;29;20414;-77
2023/04/30 09:28:10;;;;;;;5.18;3.63;;;16.70;99.90;;;16.19;100.00;97622.13;4928131;29;20458;-77
2023/04/30 09:30:36;;;;;;;4.40;3.50;;;16.80;99.90;;;16.22;100.00;97613.56;4912291;29;20409;-77
2023/04/30 09:33:02;;;;;;;4.03;3.50;;;16.80;99.90;;;16.19;100.00;97620.28;4911353;29;20488;-76
2023/04/30 09:35:29;;;;;;;4.28;3.85;;;16.80;99.90;;;16.23;100.00;97626.66;4911042;29;20470;-77
2023/04/30 09:37:55;;;;;;;5.82;3.55;;;16.90;99.90;;;16.37;100.00;97626.00;4907546;29;20401;-76
2023/04/30 09:40:33;;;;;;;4.97;3.58;;;16.90;99.90;;;16.51;100.00;97621.56;4913789;29;20431;-76
2023/04/30 09:42:59;;;;;;;4.57;3.40;;;17.00;99.90;;;16.44;100.00;97621.13;4912214;29;20524;-76
2023/04/30 09:45:26;;;;;;;4.90;3.00;;;17.10;99.90;;;16.43;100.00;97609.63;4913058;29;20417;-75
2023/04/30 09:47:51;;;;;;;7.95;3.33;;;17.00;99.90;;;16.44;100.00;97621.13;4911809;29;20533;-75
2023/04/30 09:50:18;;;;;;;4.13;3.30;;;17.00;99.90;;;16.23;100.00;97615.97;4910071;29;20780;-75
2023/04/30 09:52:51;;;;;;;4.20;3.03;;;16.90;99.90;;;16.22;100.00;97617.03;4930078;29;20420;-76
2023/04/30 09:55:18;;;;;;;4.60;3.20;;;16.80;99.90;;;16.22;100.00;97619.72;4910825;29;20436;-75
2023/04/30 09:57:46;;;;;;;3.92;3.28;;;16.80;99.90;;;16.28;100.00;97615.13;4917572;29;20413;-75
2023/04/30 10:00:14;;;;;;;12.18;8.23;;;16.90;99.90;;;16.42;100.00;97620.59;4910290;29;20488;-74
2023/04/30 10:02:41;;;;;;;16.58;10.27;;;17.00;99.90;;;16.50;100.00;97619.97;4917154;29;20927;-75